sensor_id;sensor_type;location;lat;lon;timestamp;P1;durP1;ratioP1;P2;durP2;ratioP2
22883;SDS011;13386;24.786;110.488;2022-07-23T00:01:54;9.90;;;4.72;;
22883;SDS011;13386;24.786;110.488;2022-07-23T00:04:26;11.10;;;4.70;;
22883;SDS011;13386;24.786;110.488;2022-07-23T00:06:57;10.18;;;4.88;;
22883;SDS011;13386;24.786;110.488;2022-07-23T00:09:28;10.35;;;4.38;;
22883;SDS011;13386;24.786;110.488;2022-07-23T00:11:59;12.23;;;4.35;;
22883;SDS011;13386;24.786;110.488;2022-07-23T00:14:29;10.82;;;4.70;;
22883;SDS011;13386;24.786;110.488;2022-07-23T00:17:00;10.63;;;4.50;;
22883;SDS011;13386;24.786;110.488;2022-07-23T00:19:33;11.70;;;4.57;;
22883;SDS011;13386;24.786;110.488;2022-07-23T00:22:04;9.82;;;4.80;;
22883;SDS011;13386;24.786;110.488;2022-07-23T00:24:53;11.77;;;5.30;;
22883;SDS011;13386;24.786;110.488;2022-07-23T00:27:23;14.57;;;5.07;;
22883;SDS011;13386;24.786;110.488;2022-07-23T00:29:54;15.88;;;5.03;;
22883;SDS011;13386;24.786;110.488;2022-07-23T00:32:25;21.45;;;6.25;;
22883;SDS011;13386;24.786;110.488;2022-07-23T00:34:58;21.13;;;6.82;;
22883;SDS011;13386;24.786;110.488;2022-07-23T00:37:29;22.80;;;6.28;;
22883;SDS011;13386;24.786;110.488;2022-07-23T00:39:59;22.08;;;5.88;;
22883;SDS011;13386;24.786;110.488;2022-07-23T00:42:31;16.98;;;5.72;;
22883;SDS011;13386;24.786;110.488;2022-07-23T00:45:01;16.15;;;5.15;;
22883;SDS011;13386;24.786;110.488;2022-07-23T00:47:51;17.88;;;5.30;;
22883;SDS011;13386;24.786;110.488;2022-07-23T00:50:24;15.52;;;4.97;;
22883;SDS011;13386;24.786;110.488;2022-07-23T00:52:55;14.23;;;4.80;;
22883;SDS011;13386;24.786;110.488;2022-07-23T00:55:26;12.15;;;4.72;;
22883;SDS011;13386;24.786;110.488;2022-07-23T00:57:57;17.83;;;5.57;;
22883;SDS011;13386;24.786;110.488;2022-07-23T01:00:28;15.55;;;4.85;;
22883;SDS011;13386;24.786;110.488;2022-07-23T01:02:58;13.20;;;5.07;;
22883;SDS011;13386;24.786;110.488;2022-07-23T01:05:31;13.45;;;4.82;;
22883;SDS011;13386;24.786;110.488;2022-07-23T01:08:02;11.80;;;4.63;;
22883;SDS011;13386;24.786;110.488;2022-07-23T01:10:34;11.13;;;4.55;;
22883;SDS011;13386;24.786;110.488;2022-07-23T01:13:05;13.23;;;4.90;;
22883;SDS011;13386;24.786;110.488;2022-07-23T01:15:37;12.50;;;4.68;;
22883;SDS011;13386;24.786;110.488;2022-07-23T01:18:08;12.10;;;4.65;;
22883;SDS011;13386;24.786;110.488;2022-07-23T01:20:41;12.35;;;4.63;;
22883;SDS011;13386;24.786;110.488;2022-07-23T01:23:14;10.32;;;4.50;;
22883;SDS011;13386;24.786;110.488;2022-07-23T01:25:52;12.65;;;4.75;;
22883;SDS011;13386;24.786;110.488;2022-07-23T01:28:25;10.35;;;4.40;;
22883;SDS011;13386;24.786;110.488;2022-07-23T01:30:58;10.73;;;4.38;;
22883;SDS011;13386;24.786;110.488;2022-07-23T01:33:36;9.88;;;4.00;;
22883;SDS011;13386;24.786;110.488;2022-07-23T01:36:10;11.90;;;4.00;;
22883;SDS011;13386;24.786;110.488;2022-07-23T01:38:44;11.15;;;4.20;;
22883;SDS011;13386;24.786;110.488;2022-07-23T01:41:16;10.32;;;4.30;;
22883;SDS011;13386;24.786;110.488;2022-07-23T01:43:47;11.30;;;4.18;;
22883;SDS011;13386;24.786;110.488;2022-07-23T01:46:18;8.60;;;3.92;;
22883;SDS011;13386;24.786;110.488;2022-07-23T01:48:52;10.05;;;3.70;;
22883;SDS011;13386;24.786;110.488;2022-07-23T01:51:41;12.25;;;4.15;;
22883;SDS011;13386;24.786;110.488;2022-07-23T01:54:26;9.57;;;3.70;;
22883;SDS011;13386;24.786;110.488;2022-07-23T01:56:58;7.97;;;3.55;;
22883;SDS011;13386;24.786;110.488;2022-07-23T01:59:29;7.63;;;3.03;;
22883;SDS011;13386;24.786;110.488;2022-07-23T02:02:00;6.05;;;3.08;;
22883;SDS011;13386;24.786;110.488;2022-07-23T02:05:05;6.45;;;2.80;;
22883;SDS011;13386;24.786;110.488;2022-07-23T02:07:37;5.78;;;2.67;;
22883;SDS011;13386;24.786;110.488;2022-07-23T02:10:14;7.22;;;3.22;;
22883;SDS011;13386;24.786;110.488;2022-07-23T02:12:45;8.57;;;3.22;;
22883;SDS011;13386;24.786;110.488;2022-07-23T02:15:16;8.95;;;3.03;;
22883;SDS011;13386;24.786;110.488;2022-07-23T02:17:47;15.43;;;3.33;;
22883;SDS011;13386;24.786;110.488;2022-07-23T02:20:18;8.43;;;2.85;;
22883;SDS011;13386;24.786;110.488;2022-07-23T02:22:49;7.93;;;3.33;;
22883;SDS011;13386;24.786;110.488;2022-07-23T02:25:21;8.40;;;3.28;;
22883;SDS011;13386;24.786;110.488;2022-07-23T02:27:57;7.53;;;2.50;;
22883;SDS011;13386;24.786;110.488;2022-07-23T02:30:28;7.28;;;3.00;;
22883;SDS011;13386;24.786;110.488;2022-07-23T02:32:59;5.18;;;2.50;;
22883;SDS011;13386;24.786;110.488;2022-07-23T02:35:30;7.60;;;2.60;;
22883;SDS011;13386;24.786;110.488;2022-07-23T02:38:03;8.70;;;2.88;;
22883;SDS011;13386;24.786;110.488;2022-07-23T02:40:36;5.88;;;2.75;;
22883;SDS011;13386;24.786;110.488;2022-07-23T02:43:18;6.20;;;2.33;;
22883;SDS011;13386;24.786;110.488;2022-07-23T02:45:49;7.85;;;2.80;;
22883;SDS011;13386;24.786;110.488;2022-07-23T02:48:20;5.60;;;2.55;;
22883;SDS011;13386;24.786;110.488;2022-07-23T02:50:51;7.25;;;2.78;;
22883;SDS011;13386;24.786;110.488;2022-07-23T02:53:32;5.82;;;2.45;;
22883;SDS011;13386;24.786;110.488;2022-07-23T02:56:05;5.80;;;2.50;;
22883;SDS011;13386;24.786;110.488;2022-07-23T02:58:36;6.72;;;2.50;;
22883;SDS011;13386;24.786;110.488;2022-07-23T03:01:08;5.70;;;2.60;;
22883;SDS011;13386;24.786;110.488;2022-07-23T03:03:39;7.72;;;2.70;;
22883;SDS011;13386;24.786;110.488;2022-07-23T03:06:10;4.88;;;2.38;;
22883;SDS011;13386;24.786;110.488;2022-07-23T03:08:41;7.53;;;2.80;;
22883;SDS011;13386;24.786;110.488;2022-07-23T03:11:13;5.32;;;2.35;;
22883;SDS011;13386;24.786;110.488;2022-07-23T03:13:45;5.82;;;2.75;;
22883;SDS011;13386;24.786;110.488;2022-07-23T03:16:16;7.28;;;2.45;;
22883;SDS011;13386;24.786;110.488;2022-07-23T03:18:50;5.32;;;2.30;;
22883;SDS011;13386;24.786;110.488;2022-07-23T03:21:21;7.25;;;2.53;;
22883;SDS011;13386;24.786;110.488;2022-07-23T03:23:53;5.72;;;2.30;;
22883;SDS011;13386;24.786;110.488;2022-07-23T03:26:25;5.97;;;2.30;;
22883;SDS011;13386;24.786;110.488;2022-07-23T03:28:57;4.88;;;2.15;;
22883;SDS011;13386;24.786;110.488;2022-07-23T03:31:44;3.53;;;1.98;;
22883;SDS011;13386;24.786;110.488;2022-07-23T03:34:14;7.90;;;2.05;;
22883;SDS011;13386;24.786;110.488;2022-07-23T03:36:45;7.30;;;2.60;;
22883;SDS011;13386;24.786;110.488;2022-07-23T03:39:18;4.97;;;2.28;;
22883;SDS011;13386;24.786;110.488;2022-07-23T03:41:56;5.70;;;2.03;;
22883;SDS011;13386;24.786;110.488;2022-07-23T03:44:27;6.18;;;2.50;;
22883;SDS011;13386;24.786;110.488;2022-07-23T03:46:58;4.82;;;2.17;;
22883;SDS011;13386;24.786;110.488;2022-07-23T03:49:32;5.97;;;2.22;;
22883;SDS011;13386;24.786;110.488;2022-07-23T03:52:04;6.97;;;2.33;;
22883;SDS011;13386;24.786;110.488;2022-07-23T03:54:34;4.65;;;2.17;;
22883;SDS011;13386;24.786;110.488;2022-07-23T03:57:07;6.35;;;2.10;;
22883;SDS011;13386;24.786;110.488;2022-07-23T03:59:38;5.05;;;2.05;;
22883;SDS011;13386;24.786;110.488;2022-07-23T04:02:09;6.53;;;2.30;;
22883;SDS011;13386;24.786;110.488;2022-07-23T04:04:39;7.75;;;2.17;;
22883;SDS011;13386;24.786;110.488;2022-07-23T04:07:11;5.43;;;1.98;;
22883;SDS011;13386;24.786;110.488;2022-07-23T04:09:42;3.95;;;2.08;;
22883;SDS011;13386;24.786;110.488;2022-07-23T04:12:14;7.63;;;2.63;;
22883;SDS011;13386;24.786;110.488;2022-07-23T04:14:47;7.03;;;2.08;;
22883;SDS011;13386;24.786;110.488;2022-07-23T04:17:18;3.95;;;1.85;;
22883;SDS011;13386;24.786;110.488;2022-07-23T04:19:49;3.67;;;2.00;;
22883;SDS011;13386;24.786;110.488;2022-07-23T04:22:24;8.75;;;2.30;;
22883;SDS011;13386;24.786;110.488;2022-07-23T04:24:55;6.85;;;2.00;;
22883;SDS011;13386;24.786;110.488;2022-07-23T04:27:28;5.93;;;2.10;;
22883;SDS011;13386;24.786;110.488;2022-07-23T04:30:00;4.78;;;2.00;;
22883;SDS011;13386;24.786;110.488;2022-07-23T04:32:40;6.95;;;2.25;;
22883;SDS011;13386;24.786;110.488;2022-07-23T04:35:22;6.95;;;2.53;;
22883;SDS011;13386;24.786;110.488;2022-07-23T04:37:56;7.65;;;2.40;;
22883;SDS011;13386;24.786;110.488;2022-07-23T04:40:27;4.07;;;2.17;;
22883;SDS011;13386;24.786;110.488;2022-07-23T04:43:00;5.22;;;2.08;;
22883;SDS011;13386;24.786;110.488;2022-07-23T04:45:40;4.35;;;1.90;;
22883;SDS011;13386;24.786;110.488;2022-07-23T04:48:18;4.00;;;2.00;;
22883;SDS011;13386;24.786;110.488;2022-07-23T04:50:55;5.22;;;2.00;;
22883;SDS011;13386;24.786;110.488;2022-07-23T04:53:29;4.65;;;2.00;;
22883;SDS011;13386;24.786;110.488;2022-07-23T04:56:02;5.63;;;2.38;;
22883;SDS011;13386;24.786;110.488;2022-07-23T04:58:35;7.70;;;2.30;;
22883;SDS011;13386;24.786;110.488;2022-07-23T05:01:06;6.65;;;2.08;;
22883;SDS011;13386;24.786;110.488;2022-07-23T05:03:38;5.43;;;2.28;;
22883;SDS011;13386;24.786;110.488;2022-07-23T05:06:09;7.38;;;2.15;;
22883;SDS011;13386;24.786;110.488;2022-07-23T05:08:40;4.47;;;1.88;;
22883;SDS011;13386;24.786;110.488;2022-07-23T05:11:13;3.75;;;2.00;;
22883;SDS011;13386;24.786;110.488;2022-07-23T05:13:47;6.20;;;2.10;;
22883;SDS011;13386;24.786;110.488;2022-07-23T05:16:20;5.15;;;1.88;;
22883;SDS011;13386;24.786;110.488;2022-07-23T05:18:54;5.57;;;1.90;;
22883;SDS011;13386;24.786;110.488;2022-07-23T05:21:28;4.28;;;1.80;;
22883;SDS011;13386;24.786;110.488;2022-07-23T05:23:59;5.43;;;1.80;;
22883;SDS011;13386;24.786;110.488;2022-07-23T05:26:32;7.40;;;2.00;;
22883;SDS011;13386;24.786;110.488;2022-07-23T05:29:06;6.10;;;1.67;;
22883;SDS011;13386;24.786;110.488;2022-07-23T05:31:38;4.53;;;1.80;;
22883;SDS011;13386;24.786;110.488;2022-07-23T05:34:10;7.90;;;2.20;;
22883;SDS011;13386;24.786;110.488;2022-07-23T05:36:42;4.30;;;1.73;;
22883;SDS011;13386;24.786;110.488;2022-07-23T05:39:13;4.38;;;1.90;;
22883;SDS011;13386;24.786;110.488;2022-07-23T05:41:45;6.97;;;2.30;;
22883;SDS011;13386;24.786;110.488;2022-07-23T05:44:23;11.67;;;2.10;;
22883;SDS011;13386;24.786;110.488;2022-07-23T05:46:54;5.40;;;2.00;;
22883;SDS011;13386;24.786;110.488;2022-07-23T05:49:28;3.28;;;1.80;;
22883;SDS011;13386;24.786;110.488;2022-07-23T05:52:26;7.97;;;1.92;;
22883;SDS011;13386;24.786;110.488;2022-07-23T05:55:36;7.45;;;1.75;;
22883;SDS011;13386;24.786;110.488;2022-07-23T05:58:15;4.60;;;1.60;;
22883;SDS011;13386;24.786;110.488;2022-07-23T06:00:59;8.15;;;1.75;;
22883;SDS011;13386;24.786;110.488;2022-07-23T06:03:37;6.50;;;1.83;;
22883;SDS011;13386;24.786;110.488;2022-07-23T06:06:09;3.80;;;1.80;;
22883;SDS011;13386;24.786;110.488;2022-07-23T06:08:42;5.30;;;1.58;;
22883;SDS011;13386;24.786;110.488;2022-07-23T06:11:22;3.53;;;1.60;;
22883;SDS011;13386;24.786;110.488;2022-07-23T06:13:52;3.22;;;1.55;;
22883;SDS011;13386;24.786;110.488;2022-07-23T06:16:33;4.60;;;1.42;;
22883;SDS011;13386;24.786;110.488;2022-07-23T06:19:09;3.97;;;1.70;;
22883;SDS011;13386;24.786;110.488;2022-07-23T06:21:42;4.28;;;1.40;;
22883;SDS011;13386;24.786;110.488;2022-07-23T06:24:17;4.47;;;1.48;;
22883;SDS011;13386;24.786;110.488;2022-07-23T06:26:50;7.00;;;1.60;;
22883;SDS011;13386;24.786;110.488;2022-07-23T06:29:22;4.07;;;1.70;;
22883;SDS011;13386;24.786;110.488;2022-07-23T06:31:57;5.28;;;1.60;;
22883;SDS011;13386;24.786;110.488;2022-07-23T06:34:28;5.53;;;1.60;;
22883;SDS011;13386;24.786;110.488;2022-07-23T06:39:33;3.20;;;1.60;;
22883;SDS011;13386;24.786;110.488;2022-07-23T06:42:08;3.03;;;1.45;;
22883;SDS011;13386;24.786;110.488;2022-07-23T06:44:53;6.20;;;1.67;;
22883;SDS011;13386;24.786;110.488;2022-07-23T06:47:29;5.15;;;1.70;;
22883;SDS011;13386;24.786;110.488;2022-07-23T06:50:03;4.78;;;1.70;;
22883;SDS011;13386;24.786;110.488;2022-07-23T06:52:35;5.20;;;1.48;;
22883;SDS011;13386;24.786;110.488;2022-07-23T06:55:06;4.20;;;1.50;;
22883;SDS011;13386;24.786;110.488;2022-07-23T06:57:40;5.22;;;1.38;;
22883;SDS011;13386;24.786;110.488;2022-07-23T07:00:11;3.13;;;1.38;;
22883;SDS011;13386;24.786;110.488;2022-07-23T07:02:45;5.18;;;1.60;;
22883;SDS011;13386;24.786;110.488;2022-07-23T07:05:19;2.08;;;1.10;;
22883;SDS011;13386;24.786;110.488;2022-07-23T07:10:26;3.53;;;1.50;;
22883;SDS011;13386;24.786;110.488;2022-07-23T07:12:58;3.70;;;1.55;;
22883;SDS011;13386;24.786;110.488;2022-07-23T07:15:31;4.25;;;1.60;;
22883;SDS011;13386;24.786;110.488;2022-07-23T07:18:12;3.45;;;1.60;;
22883;SDS011;13386;24.786;110.488;2022-07-23T07:20:48;4.72;;;1.58;;
22883;SDS011;13386;24.786;110.488;2022-07-23T07:23:19;7.55;;;1.58;;
22883;SDS011;13386;24.786;110.488;2022-07-23T07:25:50;6.05;;;1.60;;
22883;SDS011;13386;24.786;110.488;2022-07-23T07:28:22;3.92;;;1.40;;
22883;SDS011;13386;24.786;110.488;2022-07-23T07:30:54;3.83;;;1.27;;
22883;SDS011;13386;24.786;110.488;2022-07-23T07:33:33;4.97;;;1.60;;
22883;SDS011;13386;24.786;110.488;2022-07-23T07:36:05;3.42;;;1.30;;
22883;SDS011;13386;24.786;110.488;2022-07-23T07:38:37;3.78;;;1.40;;
22883;SDS011;13386;24.786;110.488;2022-07-23T07:41:09;6.15;;;1.42;;
22883;SDS011;13386;24.786;110.488;2022-07-23T07:43:42;3.58;;;1.40;;
22883;SDS011;13386;24.786;110.488;2022-07-23T07:46:26;3.53;;;1.40;;
22883;SDS011;13386;24.786;110.488;2022-07-23T07:49:12;4.22;;;1.33;;
22883;SDS011;13386;24.786;110.488;2022-07-23T07:54:17;4.93;;;1.25;;
22883;SDS011;13386;24.786;110.488;2022-07-23T07:56:48;4.15;;;1.60;;
22883;SDS011;13386;24.786;110.488;2022-07-23T07:59:20;3.38;;;1.55;;
22883;SDS011;13386;24.786;110.488;2022-07-23T08:01:51;3.38;;;1.30;;
22883;SDS011;13386;24.786;110.488;2022-07-23T08:04:23;3.95;;;1.30;;
22883;SDS011;13386;24.786;110.488;2022-07-23T08:06:54;3.40;;;1.30;;
22883;SDS011;13386;24.786;110.488;2022-07-23T08:09:31;6.00;;;1.50;;
22883;SDS011;13386;24.786;110.488;2022-07-23T08:12:02;3.30;;;1.63;;
22883;SDS011;13386;24.786;110.488;2022-07-23T08:14:36;5.95;;;1.60;;
22883;SDS011;13386;24.786;110.488;2022-07-23T08:19:40;3.22;;;1.50;;
22883;SDS011;13386;24.786;110.488;2022-07-23T08:22:11;4.57;;;1.70;;
22883;SDS011;13386;24.786;110.488;2022-07-23T08:24:45;3.72;;;1.42;;
22883;SDS011;13386;24.786;110.488;2022-07-23T08:27:16;3.28;;;1.33;;
22883;SDS011;13386;24.786;110.488;2022-07-23T08:29:48;5.35;;;1.40;;
22883;SDS011;13386;24.786;110.488;2022-07-23T08:32:19;3.33;;;1.35;;
22883;SDS011;13386;24.786;110.488;2022-07-23T08:34:52;3.97;;;1.35;;
22883;SDS011;13386;24.786;110.488;2022-07-23T08:37:23;4.68;;;1.60;;
22883;SDS011;13386;24.786;110.488;2022-07-23T08:39:54;4.07;;;1.42;;
22883;SDS011;13386;24.786;110.488;2022-07-23T08:42:26;2.35;;;1.20;;
22883;SDS011;13386;24.786;110.488;2022-07-23T08:44:57;4.00;;;1.55;;
22883;SDS011;13386;24.786;110.488;2022-07-23T08:47:28;2.58;;;1.35;;
22883;SDS011;13386;24.786;110.488;2022-07-23T08:50:01;2.63;;;1.45;;
22883;SDS011;13386;24.786;110.488;2022-07-23T08:52:32;2.78;;;1.20;;
22883;SDS011;13386;24.786;110.488;2022-07-23T08:55:08;4.88;;;1.40;;
22883;SDS011;13386;24.786;110.488;2022-07-23T08:57:39;3.15;;;1.30;;
22883;SDS011;13386;24.786;110.488;2022-07-23T09:00:10;3.95;;;1.27;;
22883;SDS011;13386;24.786;110.488;2022-07-23T09:02:42;2.17;;;1.30;;
22883;SDS011;13386;24.786;110.488;2022-07-23T09:05:16;4.28;;;1.27;;
22883;SDS011;13386;24.786;110.488;2022-07-23T09:08:05;5.25;;;1.17;;
22883;SDS011;13386;24.786;110.488;2022-07-23T09:10:46;4.07;;;1.52;;
22883;SDS011;13386;24.786;110.488;2022-07-23T09:13:24;3.10;;;1.40;;
22883;SDS011;13386;24.786;110.488;2022-07-23T09:15:57;5.50;;;1.27;;
22883;SDS011;13386;24.786;110.488;2022-07-23T09:18:29;4.47;;;1.38;;
22883;SDS011;13386;24.786;110.488;2022-07-23T09:21:08;3.47;;;1.40;;
22883;SDS011;13386;24.786;110.488;2022-07-23T09:23:40;6.53;;;1.60;;
22883;SDS011;13386;24.786;110.488;2022-07-23T09:26:28;2.97;;;1.33;;
22883;SDS011;13386;24.786;110.488;2022-07-23T09:29:11;5.28;;;1.33;;
22883;SDS011;13386;24.786;110.488;2022-07-23T09:31:46;6.47;;;1.40;;
22883;SDS011;13386;24.786;110.488;2022-07-23T09:34:18;4.40;;;1.30;;
22883;SDS011;13386;24.786;110.488;2022-07-23T09:36:51;5.13;;;1.35;;
22883;SDS011;13386;24.786;110.488;2022-07-23T09:39:24;3.17;;;1.17;;
22883;SDS011;13386;24.786;110.488;2022-07-23T09:42:13;3.78;;;1.50;;
22883;SDS011;13386;24.786;110.488;2022-07-23T09:44:47;5.82;;;1.70;;
22883;SDS011;13386;24.786;110.488;2022-07-23T09:47:19;4.70;;;1.30;;
22883;SDS011;13386;24.786;110.488;2022-07-23T09:50:00;4.70;;;1.45;;
22883;SDS011;13386;24.786;110.488;2022-07-23T09:52:37;5.13;;;1.40;;
22883;SDS011;13386;24.786;110.488;2022-07-23T09:55:16;3.58;;;1.60;;
22883;SDS011;13386;24.786;110.488;2022-07-23T09:57:48;3.85;;;1.38;;
22883;SDS011;13386;24.786;110.488;2022-07-23T10:00:20;4.70;;;1.58;;
22883;SDS011;13386;24.786;110.488;2022-07-23T10:02:51;4.53;;;1.30;;
22883;SDS011;13386;24.786;110.488;2022-07-23T10:05:27;2.70;;;1.38;;
22883;SDS011;13386;24.786;110.488;2022-07-23T10:08:01;3.00;;;1.30;;
22883;SDS011;13386;24.786;110.488;2022-07-23T10:10:50;4.30;;;1.30;;
22883;SDS011;13386;24.786;110.488;2022-07-23T10:13:45;6.10;;;1.45;;
22883;SDS011;13386;24.786;110.488;2022-07-23T10:16:45;3.35;;;1.38;;
22883;SDS011;13386;24.786;110.488;2022-07-23T10:19:17;4.93;;;1.50;;
22883;SDS011;13386;24.786;110.488;2022-07-23T10:21:49;5.65;;;1.48;;
22883;SDS011;13386;24.786;110.488;2022-07-23T10:24:25;3.10;;;1.27;;
22883;SDS011;13386;24.786;110.488;2022-07-23T10:27:02;3.50;;;1.08;;
22883;SDS011;13386;24.786;110.488;2022-07-23T10:29:40;6.93;;;1.50;;
22883;SDS011;13386;24.786;110.488;2022-07-23T10:32:16;3.58;;;1.30;;
22883;SDS011;13386;24.786;110.488;2022-07-23T10:34:57;4.25;;;1.38;;
22883;SDS011;13386;24.786;110.488;2022-07-23T10:37:30;4.97;;;1.52;;
22883;SDS011;13386;24.786;110.488;2022-07-23T10:42:36;6.90;;;1.48;;
22883;SDS011;13386;24.786;110.488;2022-07-23T10:45:23;3.03;;;1.30;;
22883;SDS011;13386;24.786;110.488;2022-07-23T10:47:55;4.15;;;1.23;;
22883;SDS011;13386;24.786;110.488;2022-07-23T10:50:26;5.95;;;1.27;;
22883;SDS011;13386;24.786;110.488;2022-07-23T10:53:11;5.80;;;1.80;;
22883;SDS011;13386;24.786;110.488;2022-07-23T10:55:45;4.68;;;1.45;;
22883;SDS011;13386;24.786;110.488;2022-07-23T10:58:20;4.90;;;1.40;;
22883;SDS011;13386;24.786;110.488;2022-07-23T11:03:28;13.27;;;3.25;;
22883;SDS011;13386;24.786;110.488;2022-07-23T11:06:04;4.07;;;1.73;;
22883;SDS011;13386;24.786;110.488;2022-07-23T11:08:35;6.45;;;2.17;;
22883;SDS011;13386;24.786;110.488;2022-07-23T11:11:09;6.60;;;2.38;;
22883;SDS011;13386;24.786;110.488;2022-07-23T11:13:49;7.80;;;2.72;;
22883;SDS011;13386;24.786;110.488;2022-07-23T11:16:21;10.18;;;2.53;;
22883;SDS011;13386;24.786;110.488;2022-07-23T11:18:53;7.97;;;2.50;;
22883;SDS011;13386;24.786;110.488;2022-07-23T11:24:13;8.52;;;3.10;;
22883;SDS011;13386;24.786;110.488;2022-07-23T11:32:07;8.35;;;3.03;;
22883;SDS011;13386;24.786;110.488;2022-07-23T11:34:39;8.70;;;3.13;;
22883;SDS011;13386;24.786;110.488;2022-07-23T11:37:11;10.70;;;3.58;;
22883;SDS011;13386;24.786;110.488;2022-07-23T11:39:42;8.30;;;3.40;;
22883;SDS011;13386;24.786;110.488;2022-07-23T11:42:18;13.25;;;3.75;;
22883;SDS011;13386;24.786;110.488;2022-07-23T11:44:50;12.52;;;3.97;;
22883;SDS011;13386;24.786;110.488;2022-07-23T11:47:24;12.75;;;3.90;;
22883;SDS011;13386;24.786;110.488;2022-07-23T11:49:55;14.60;;;4.00;;
22883;SDS011;13386;24.786;110.488;2022-07-23T11:52:29;11.23;;;3.08;;
22883;SDS011;13386;24.786;110.488;2022-07-23T11:55:00;8.73;;;3.55;;
22883;SDS011;13386;24.786;110.488;2022-07-23T11:57:32;16.38;;;4.35;;
22883;SDS011;13386;24.786;110.488;2022-07-23T12:00:04;18.90;;;4.72;;
22883;SDS011;13386;24.786;110.488;2022-07-23T12:02:41;10.63;;;3.22;;
22883;SDS011;13386;24.786;110.488;2022-07-23T12:05:12;9.43;;;3.00;;
22883;SDS011;13386;24.786;110.488;2022-07-23T12:07:43;12.32;;;3.38;;
22883;SDS011;13386;24.786;110.488;2022-07-23T12:10:17;8.85;;;3.10;;
22883;SDS011;13386;24.786;110.488;2022-07-23T12:12:50;13.88;;;3.55;;
22883;SDS011;13386;24.786;110.488;2022-07-23T12:15:22;10.18;;;3.55;;
22883;SDS011;13386;24.786;110.488;2022-07-23T12:17:55;13.45;;;3.67;;
22883;SDS011;13386;24.786;110.488;2022-07-23T12:20:27;10.27;;;3.50;;
22883;SDS011;13386;24.786;110.488;2022-07-23T12:23:00;9.55;;;3.55;;
22883;SDS011;13386;24.786;110.488;2022-07-23T12:25:35;10.90;;;3.28;;
22883;SDS011;13386;24.786;110.488;2022-07-23T12:28:07;9.23;;;3.67;;
22883;SDS011;13386;24.786;110.488;2022-07-23T12:30:38;9.95;;;3.72;;
22883;SDS011;13386;24.786;110.488;2022-07-23T12:33:12;10.55;;;3.78;;
22883;SDS011;13386;24.786;110.488;2022-07-23T12:35:44;13.35;;;3.85;;
22883;SDS011;13386;24.786;110.488;2022-07-23T12:38:21;11.05;;;3.88;;
22883;SDS011;13386;24.786;110.488;2022-07-23T12:40:52;12.10;;;3.67;;
22883;SDS011;13386;24.786;110.488;2022-07-23T12:43:24;9.20;;;3.45;;
22883;SDS011;13386;24.786;110.488;2022-07-23T12:45:55;10.30;;;3.58;;
22883;SDS011;13386;24.786;110.488;2022-07-23T12:48:28;12.15;;;4.50;;
22883;SDS011;13386;24.786;110.488;2022-07-23T12:50:59;10.48;;;3.92;;
22883;SDS011;13386;24.786;110.488;2022-07-23T12:53:31;11.02;;;4.50;;
22883;SDS011;13386;24.786;110.488;2022-07-23T12:56:05;12.30;;;4.50;;
22883;SDS011;13386;24.786;110.488;2022-07-23T12:58:41;15.45;;;4.45;;
22883;SDS011;13386;24.786;110.488;2022-07-23T13:01:24;12.65;;;3.78;;
22883;SDS011;13386;24.786;110.488;2022-07-23T13:04:00;10.32;;;4.07;;
22883;SDS011;13386;24.786;110.488;2022-07-23T13:06:35;10.48;;;3.70;;
22883;SDS011;13386;24.786;110.488;2022-07-23T13:09:10;12.00;;;3.90;;
22883;SDS011;13386;24.786;110.488;2022-07-23T13:11:42;15.05;;;3.88;;
22883;SDS011;13386;24.786;110.488;2022-07-23T13:14:13;11.60;;;4.20;;
22883;SDS011;13386;24.786;110.488;2022-07-23T13:16:45;17.13;;;4.63;;
22883;SDS011;13386;24.786;110.488;2022-07-23T13:19:18;14.90;;;4.80;;
22883;SDS011;13386;24.786;110.488;2022-07-23T13:21:50;13.73;;;4.78;;
22883;SDS011;13386;24.786;110.488;2022-07-23T13:24:21;13.32;;;4.80;;
22883;SDS011;13386;24.786;110.488;2022-07-23T13:26:54;15.90;;;5.90;;
22883;SDS011;13386;24.786;110.488;2022-07-23T13:29:28;22.57;;;6.80;;
22883;SDS011;13386;24.786;110.488;2022-07-23T13:31:58;20.05;;;7.13;;
22883;SDS011;13386;24.786;110.488;2022-07-23T13:34:34;21.67;;;7.07;;
22883;SDS011;13386;24.786;110.488;2022-07-23T13:37:06;16.10;;;6.05;;
22883;SDS011;13386;24.786;110.488;2022-07-23T13:39:38;14.57;;;5.57;;
22883;SDS011;13386;24.786;110.488;2022-07-23T13:42:11;13.10;;;4.72;;
22883;SDS011;13386;24.786;110.488;2022-07-23T13:44:48;14.88;;;4.53;;
22883;SDS011;13386;24.786;110.488;2022-07-23T13:47:21;18.80;;;8.35;;
22883;SDS011;13386;24.786;110.488;2022-07-23T13:49:55;12.82;;;5.38;;
22883;SDS011;13386;24.786;110.488;2022-07-23T13:52:29;17.02;;;4.85;;
22883;SDS011;13386;24.786;110.488;2022-07-23T13:55:01;13.95;;;4.65;;
22883;SDS011;13386;24.786;110.488;2022-07-23T13:57:33;12.32;;;4.70;;
22883;SDS011;13386;24.786;110.488;2022-07-23T14:00:05;11.50;;;3.97;;
22883;SDS011;13386;24.786;110.488;2022-07-23T14:02:37;11.25;;;4.40;;
22883;SDS011;13386;24.786;110.488;2022-07-23T14:05:14;12.73;;;4.68;;
22883;SDS011;13386;24.786;110.488;2022-07-23T14:07:49;10.60;;;4.30;;
22883;SDS011;13386;24.786;110.488;2022-07-23T14:10:26;10.25;;;4.15;;
22883;SDS011;13386;24.786;110.488;2022-07-23T14:12:59;10.55;;;4.28;;
22883;SDS011;13386;24.786;110.488;2022-07-23T14:15:31;11.75;;;4.22;;
22883;SDS011;13386;24.786;110.488;2022-07-23T14:18:08;13.13;;;4.10;;
22883;SDS011;13386;24.786;110.488;2022-07-23T14:20:49;14.63;;;6.10;;
22883;SDS011;13386;24.786;110.488;2022-07-23T14:23:30;14.25;;;5.05;;
22883;SDS011;13386;24.786;110.488;2022-07-23T14:26:14;13.02;;;4.50;;
22883;SDS011;13386;24.786;110.488;2022-07-23T14:28:44;13.20;;;4.70;;
22883;SDS011;13386;24.786;110.488;2022-07-23T14:31:20;12.73;;;4.15;;
22883;SDS011;13386;24.786;110.488;2022-07-23T14:33:51;15.13;;;4.72;;
22883;SDS011;13386;24.786;110.488;2022-07-23T14:36:26;12.75;;;4.60;;
22883;SDS011;13386;24.786;110.488;2022-07-23T14:39:08;16.95;;;4.88;;
22883;SDS011;13386;24.786;110.488;2022-07-23T14:41:42;9.43;;;4.28;;
22883;SDS011;13386;24.786;110.488;2022-07-23T14:44:14;18.73;;;6.10;;
22883;SDS011;13386;24.786;110.488;2022-07-23T14:46:44;17.40;;;5.88;;
22883;SDS011;13386;24.786;110.488;2022-07-23T14:49:19;15.48;;;4.90;;
22883;SDS011;13386;24.786;110.488;2022-07-23T14:51:54;15.68;;;5.22;;
22883;SDS011;13386;24.786;110.488;2022-07-23T14:54:25;12.98;;;5.03;;
22883;SDS011;13386;24.786;110.488;2022-07-23T14:57:02;14.48;;;5.20;;
22883;SDS011;13386;24.786;110.488;2022-07-23T15:02:12;13.85;;;5.28;;
22883;SDS011;13386;24.786;110.488;2022-07-23T15:04:45;21.60;;;5.55;;
22883;SDS011;13386;24.786;110.488;2022-07-23T15:07:21;20.42;;;7.00;;
22883;SDS011;13386;24.786;110.488;2022-07-23T15:09:52;19.80;;;6.55;;
22883;SDS011;13386;24.786;110.488;2022-07-23T15:12:28;19.38;;;5.80;;
22883;SDS011;13386;24.786;110.488;2022-07-23T15:15:02;16.50;;;5.30;;
22883;SDS011;13386;24.786;110.488;2022-07-23T15:17:38;20.42;;;5.57;;
22883;SDS011;13386;24.786;110.488;2022-07-23T15:20:12;18.13;;;5.55;;
22883;SDS011;13386;24.786;110.488;2022-07-23T15:22:47;16.13;;;5.60;;